.
WxDataArchive / Data Records for 2006-07-17
2006-07-16 July 2006 2006-07-18

Data Records for Monday, 17 July 2006

Time	Temp	Chill	HIndex	Humid	Dewpt	 Wind 	HiWind	WindDir	Rain 	Barom 
-----	----	-----	------	-----	-----	------	------	-------	-----	----- 
00:00	74.7	74.7	74.7	84	69.5	0	0	---	0.00	30.009 
00:05	74.6	74.6	74.6	84	69.4	0	0	---	0.00	30.009 
00:10	74.6	74.6	74.6	84	69.4	0	0	---	0.00	30.009 
00:15	74.4	74.4	74.4	84	69.2	0	0	---	0.00	30.009 
00:20	74.2	74.2	74.2	84	69.0	0	0	---	0.00	30.009 
00:25	74.0	74.0	74.0	85	69.2	0	0	---	0.00	30.009 
00:30	73.9	73.9	73.9	85	69.1	0	0	---	0.00	30.003 
00:35	73.7	73.7	73.7	86	69.2	0	0	---	0.00	30.003 
00:40	73.5	73.5	73.5	87	69.4	0	0	---	0.00	30.003 
00:45	73.3	73.3	73.3	87	69.2	0	0	---	0.00	30.002 
00:50	73.3	73.3	73.3	87	69.2	0	0	---	0.00	30.002 
00:55	73.2	73.2	73.2	87	69.1	0	0	---	0.00	30.002 
01:00	73.0	73.0	73.0	88	69.2	0	0	---	0.00	30.002 
01:05	73.0	73.0	73.0	88	69.2	0	0	---	0.00	30.002 
01:10	72.8	72.8	72.8	88	69.0	0	0	---	0.00	30.002 
01:15	72.8	72.8	72.8	88	69.0	0	0	---	0.00	30.002 
01:20	72.7	72.7	72.7	88	68.9	0	0	---	0.00	30.002 
01:25	72.7	72.7	72.7	89	69.3	0	0	---	0.00	30.002 
01:30	72.7	72.7	72.7	89	69.3	0	0	---	0.00	29.993 
01:35	72.5	72.5	72.5	89	69.1	0	0	---	0.00	29.993 
01:40	72.5	72.5	72.5	90	69.4	0	0	---	0.00	29.993 
01:45	72.5	72.5	72.5	90	69.4	0	0	---	0.00	29.989 
01:50	72.7	72.7	72.7	90	69.6	0	0	---	0.00	29.989 
01:55	72.7	72.7	72.7	90	69.6	0	0	---	0.00	29.989 
02:00	72.7	72.7	72.7	90	69.6	0	0	---	0.00	29.987 
02:05	72.7	72.7	72.7	90	69.6	0	0	---	0.00	29.987 
02:10	72.7	72.7	72.7	90	69.6	0	0	---	0.00	29.987 
02:15	72.5	72.5	72.5	90	69.4	0	0	---	0.00	29.985 
02:20	72.5	72.5	72.5	90	69.4	0	0	---	0.00	29.985 
02:25	72.3	72.3	72.3	90	69.2	0	0	---	0.00	29.985 
02:30	72.3	72.3	72.3	90	69.2	0	0	---	0.00	29.987 
02:35	72.1	72.1	72.1	91	69.3	0	0	---	0.00	29.987 
02:40	72.0	72.0	72.0	91	69.2	0	0	---	0.00	29.987 
02:45	71.8	71.8	71.8	91	69.0	0	0	---	0.00	29.980 
02:50	71.8	71.8	71.8	91	69.0	0	0	---	0.00	29.980 
02:55	71.8	71.8	71.8	91	69.0	0	0	---	0.00	29.980 
03:00	71.8	71.8	71.8	92	69.3	0	1	270	0.00	29.972 
03:05	71.8	71.8	71.8	92	69.3	0	0	---	0.00	29.972 
03:10	71.8	71.8	71.8	92	69.3	0	0	---	0.00	29.972 
03:15	71.8	71.8	71.8	92	69.3	0	0	---	0.00	29.971 
03:20	71.6	71.6	71.6	91	68.8	0	0	---	0.00	29.971 
03:25	71.6	71.6	71.6	92	69.1	0	0	---	0.00	29.971 
03:30	71.5	71.5	71.5	91	68.7	0	0	---	0.00	29.971 
03:35	71.3	71.3	71.3	91	68.5	0	0	---	0.00	29.971 
03:40	71.3	71.3	71.3	92	68.8	0	0	---	0.00	29.971 
03:45	71.3	71.3	71.3	92	68.8	0	0	---	0.00	29.971 
03:50	71.1	71.1	71.1	92	68.7	0	0	---	0.00	29.971 
03:55	71.1	71.1	71.1	92	68.7	0	0	---	0.00	29.971 
04:00	71.1	71.1	71.1	93	69.0	0	0	---	0.00	29.972 
04:05	71.1	71.1	71.1	92	68.7	0	0	---	0.00	29.972 
04:10	70.9	70.9	70.9	92	68.5	0	0	---	0.00	29.972 
04:15	70.8	70.8	70.8	92	68.4	0	0	---	0.00	29.973 
04:20	70.6	70.6	70.6	92	68.2	0	0	---	0.00	29.973 
04:25	70.6	70.6	70.6	92	68.2	0	0	---	0.00	29.973 
04:30	70.4	70.4	70.4	92	68.0	0	0	---	0.00	29.975 
04:35	70.3	70.3	70.3	92	67.9	0	0	---	0.00	29.975 
04:40	70.1	70.1	70.1	92	67.7	0	0	---	0.00	29.975 
04:45	69.9	69.9	69.9	92	67.5	0	0	---	0.00	29.974 
04:50	69.9	69.9	69.9	93	67.8	0	0	---	0.00	29.974 
04:55	69.8	69.8	69.8	93	67.7	0	0	---	0.00	29.974 
05:00	69.9	69.9	69.9	93	67.8	0	1	270	0.00	29.974 
05:05	70.3	70.3	70.3	94	68.5	0	1	270	0.00	29.974 
05:10	70.4	70.4	70.4	94	68.6	0	1	270	0.00	29.974 
05:15	70.6	70.6	70.6	94	68.8	0	2	270	0.00	29.971 
05:20	70.8	70.8	70.8	94	69.0	0	0	---	0.00	29.971 
05:25	70.8	70.8	70.8	93	68.7	0	0	---	0.00	29.971 
05:30	70.9	70.9	70.9	93	68.8	0	0	---	0.00	29.971 
05:35	70.9	70.9	70.9	93	68.8	0	1	270	0.00	29.971 
05:40	71.3	71.3	71.3	92	68.8	0	1	270	0.00	29.971 
05:45	71.6	71.6	71.6	90	68.5	0	1	270	0.00	29.971 
05:50	72.0	72.0	72.0	88	68.2	0	2	270	0.00	29.971 
05:55	72.1	72.1	72.1	87	68.0	0	1	270	0.00	29.971 
06:00	72.1	72.1	72.1	87	68.0	0	1	270	0.00	29.974 
06:05	72.1	72.1	72.1	86	67.7	0	1	270	0.00	29.974 
06:10	72.3	72.3	72.3	85	67.5	0	1	270	0.00	29.974 
06:15	72.3	72.3	72.3	85	67.5	0	0	---	0.00	29.979 
06:20	72.1	72.1	72.1	85	67.3	0	0	---	0.00	29.979 
06:25	72.1	72.1	72.1	85	67.3	0	0	---	0.00	29.979 
06:30	72.1	72.1	72.1	85	67.3	0	0	---	0.00	29.977 
06:35	72.0	72.0	72.0	85	67.2	0	0	---	0.00	29.977 
06:40	71.8	71.8	71.8	85	67.0	0	0	---	0.00	29.977 
06:45	71.6	71.6	71.6	86	67.2	0	0	---	0.00	29.980 
06:50	71.6	71.6	71.6	86	67.2	0	0	---	0.00	29.980 
06:55	71.5	71.5	71.5	86	67.1	0	0	---	0.00	29.980 
07:00	71.5	71.5	71.5	87	67.4	0	0	---	0.00	29.985 
07:05	71.5	71.5	71.5	87	67.4	0	0	---	0.00	29.985 
07:10	71.5	71.5	71.5	87	67.4	0	0	---	0.00	29.985 
07:15	71.6	71.6	71.6	87	67.5	0	0	---	0.00	29.990 
07:20	71.8	71.8	71.8	87	67.7	0	1	270	0.00	29.990 
07:25	72.3	72.3	72.3	87	68.2	0	1	270	0.00	29.990 
07:30	72.8	72.8	72.8	86	68.4	0	1	270	0.00	29.987 
07:35	73.5	73.5	73.5	84	68.4	0	1	270	0.00	29.987 
07:40	74.0	74.0	74.0	83	68.5	0	0	---	0.00	29.987 
07:45	74.6	74.6	74.6	82	68.7	0	1	270	0.00	29.990 
07:50	75.3	75.3	76.1	79	68.3	0	1	270	0.00	29.990 
07:55	75.8	75.8	76.9	78	68.4	0	0	---	0.00	29.990 
08:00	76.5	76.5	77.9	77	68.7	0	0	---	0.00	29.998 
08:05	77.2	77.2	79.0	77	69.4	0	1	270	0.00	29.998 
08:10	77.4	77.4	79.3	74	68.4	1	3	270	0.00	29.998 
08:15	77.7	77.7	79.7	74	68.7	1	3	248	0.00	30.002 
08:20	78.1	78.1	80.3	74	69.1	0	2	248	0.00	30.002 
08:25	78.3	78.3	80.6	73	68.9	0	2	248	0.00	30.002 
08:30	78.8	78.8	81.3	72	69.0	1	2	248	0.00	30.002 
08:35	79.2	79.2	81.8	71	69.0	1	2	248	0.00	30.002 
08:40	79.6	79.6	82.4	71	69.3	0	1	248	0.00	30.002 
08:45	80.1	80.1	83.2	71	69.8	0	1	248	0.00	29.999 
08:50	80.5	80.5	83.8	70	69.8	0	2	248	0.00	29.999 
08:55	81.1	81.1	84.3	67	69.1	2	3	248	0.00	29.999 
09:00	81.2	81.2	84.5	67	69.2	1	3	248	0.00	29.998 
09:05	81.6	81.6	85.3	68	70.0	1	2	248	0.00	29.998 
09:10	82.0	82.0	85.4	65	69.0	1	3	248	0.00	29.998 
09:15	82.2	82.2	85.7	65	69.2	2	4	270	0.00	29.998 
09:20	82.4	82.4	85.8	64	69.0	1	3	248	0.00	29.998 
09:25	82.6	82.6	86.2	64	69.2	1	4	248	0.00	29.998 
09:30	82.8	82.8	86.3	63	68.9	1	4	248	0.00	29.996 
09:35	83.4	83.4	87.3	63	69.5	1	3	248	0.00	29.996 
09:40	83.8	83.8	87.7	62	69.4	1	3	248	0.00	29.996 
09:45	84.0	84.0	87.8	61	69.1	2	4	270	0.00	29.992 
09:50	84.1	84.1	88.5	63	70.1	1	4	270	0.00	29.992 
09:55	84.5	84.5	88.1	59	68.6	2	5	248	0.00	29.992 
10:00	84.7	84.7	88.7	60	69.2	2	4	270	0.00	29.989 
10:05	85.1	85.1	88.8	58	68.6	1	3	270	0.00	29.989 
10:10	85.3	85.3	89.2	58	68.8	2	5	270	0.00	29.989 
10:15	85.5	85.5	89.5	58	69.0	2	5	248	0.00	29.990 
10:20	85.9	85.9	89.9	57	68.9	2	4	270	0.00	29.990 
10:25	86.1	86.1	89.9	56	68.5	2	5	270	0.00	29.990 
10:30	86.3	86.3	90.9	58	69.7	1	4	270	0.00	29.989 
10:35	86.3	86.3	90.2	56	68.7	3	6	248	0.00	29.989 
10:40	86.5	86.5	90.6	56	68.9	2	5	248	0.00	29.989 
10:45	87.2	87.2	91.9	56	69.6	2	4	248	0.00	29.985 
10:50	87.2	87.2	91.5	55	69.0	2	4	270	0.00	29.985 
10:55	87.2	87.2	90.8	53	67.9	2	4	270	0.00	29.985 
11:00	87.2	87.2	91.1	54	68.5	3	6	270	0.00	29.979 
11:05	87.2	87.2	91.5	55	69.0	4	9	248	0.00	29.979 
11:10	87.0	87.0	91.5	56	69.4	4	9	270	0.00	29.979 
11:15	87.2	87.2	91.5	55	69.0	2	4	270	0.00	29.980 
11:20	87.4	87.4	90.7	52	67.6	3	5	248	0.00	29.980 
11:25	87.8	87.8	91.4	52	67.9	3	6	270	0.00	29.980 
11:30	88.0	88.0	92.2	53	68.7	2	5	270	0.00	29.979 
11:35	88.2	88.2	91.4	50	67.2	3	5	270	0.00	29.979 
11:40	88.6	88.6	93.3	53	69.2	2	3	248	0.00	29.979 
11:45	88.8	88.8	92.4	50	67.7	3	5	270	0.00	29.978 
11:50	89.3	89.3	92.5	48	67.0	2	4	270	0.00	29.978 
11:55	89.5	89.5	92.8	48	67.2	3	5	270	0.00	29.978 
12:00	89.5	89.5	93.7	50	68.4	3	5	270	0.00	29.976 
12:05	89.5	89.5	92.1	46	65.9	3	10	248	0.00	29.976 
12:10	89.3	89.3	92.5	48	67.0	4	7	270	0.00	29.976 
12:15	89.0	89.0	91.6	47	66.1	3	6	270	0.00	29.975 
12:20	89.3	89.3	92.1	47	66.4	3	5	270	0.00	29.975 
12:25	89.5	89.5	92.8	48	67.2	3	6	270	0.00	29.975 
12:30	89.9	89.9	92.7	46	66.3	2	7	248	0.00	29.973 
12:35	90.3	90.3	92.6	44	65.4	3	7	248	0.00	29.973 
12:40	90.1	90.1	93.1	46	66.5	3	7	248	0.00	29.973 
12:45	90.1	90.1	93.1	46	66.5	3	5	270	0.00	29.967 
12:50	90.1	90.1	92.3	44	65.2	3	9	270	0.00	29.967 
12:55	90.1	90.1	91.9	43	64.5	4	7	270	0.00	29.967 
13:00	90.1	90.1	91.9	43	64.5	3	7	270	0.00	29.964 
13:05	90.1	90.1	91.9	43	64.5	4	8	270	0.00	29.964 
13:10	90.3	90.3	91.1	40	62.7	3	10	270	0.00	29.964 
13:15	90.5	90.5	91.4	40	62.8	3	6	270	0.00	29.962 
13:20	90.7	90.7	91.7	40	63.0	3	7	270	0.00	29.962 
13:25	90.7	90.7	92.5	42	64.4	3	7	248	0.00	29.962 
13:30	91.0	91.0	93.0	42	64.7	3	9	248	0.00	29.957 
13:35	91.2	91.2	93.7	43	65.5	2	8	248	0.00	29.957 
13:40	91.4	91.4	94.0	43	65.7	2	5	248	0.00	29.957 
13:45	91.8	91.8	94.7	43	66.1	2	5	248	0.00	29.952 
13:50	91.8	91.8	93.9	41	64.7	3	9	270	0.00	29.952 
13:55	91.4	91.4	93.2	41	64.3	3	8	270	0.00	29.952 
14:00	91.2	91.2	92.9	41	64.2	3	6	270	0.00	29.948 
14:05	91.2	91.2	94.1	44	66.2	3	7	248	0.00	29.948 
14:10	91.2	91.2	92.5	40	63.5	4	9	248	0.00	29.948 
14:15	91.0	91.0	92.6	41	64.0	4	7	248	0.00	29.943 
14:20	91.2	91.2	93.3	42	64.9	3	6	270	0.00	29.943 
14:25	91.2	91.2	93.7	43	65.5	3	6	248	0.00	29.943 
14:30	91.2	91.2	93.7	43	65.5	3	5	270	0.00	29.939 
14:35	91.6	91.6	94.4	43	65.9	3	9	270	0.00	29.939 
14:40	91.4	91.4	93.2	41	64.3	4	9	270	0.00	29.939 
14:45	91.2	91.2	93.7	43	65.5	4	11	270	0.00	29.937 
14:50	91.6	91.6	94.4	43	65.9	3	10	248	0.00	29.937 
14:55	91.6	91.6	94.8	44	66.6	3	10	270	0.00	29.937 
15:00	91.4	91.4	93.6	42	65.0	3	5	270	0.00	29.930 
15:05	91.6	91.6	93.5	41	64.5	3	9	270	0.00	29.930 
15:10	91.6	91.6	93.5	41	64.5	3	9	248	0.00	29.930 
15:15	91.8	91.8	94.3	42	65.4	3	11	270	0.00	29.929 
15:20	91.4	91.4	93.6	42	65.0	4	11	270	0.00	29.929 
15:25	91.4	91.4	94.0	43	65.7	3	9	270	0.00	29.929 
15:30	91.6	91.6	93.9	42	65.2	3	7	270	0.00	29.928 
15:35	92.1	92.1	94.8	42	65.7	4	7	248	0.00	29.928 
15:40	91.8	91.8	93.9	41	64.7	4	11	270	0.00	29.928 
15:45	91.6	91.6	94.4	43	65.9	3	7	270	0.00	29.926 
15:50	92.1	92.1	94.8	42	65.7	3	6	270	0.00	29.926 
15:55	92.1	92.1	94.8	42	65.7	3	6	248	0.00	29.926 
16:00	92.1	92.1	94.8	42	65.7	3	9	270	0.00	29.926 
16:05	92.1	92.1	94.8	42	65.7	3	7	270	0.00	29.926 
16:10	91.8	91.8	94.7	43	66.1	3	9	270	0.00	29.926 
16:15	92.1	92.1	95.2	43	66.3	2	7	90	0.00	29.923 
16:20	92.1	92.1	94.4	41	65.0	3	6	248	0.00	29.923 
16:25	92.1	92.1	93.9	40	64.3	3	6	270	0.00	29.923 
16:30	92.1	92.1	94.8	42	65.7	3	6	270	0.00	29.922 
16:35	91.8	91.8	94.7	43	66.1	2	6	248	0.00	29.922 
16:40	91.6	91.6	94.4	43	65.9	4	10	270	0.00	29.922 
16:45	91.6	91.6	93.9	42	65.2	3	7	270	0.00	29.915 
16:50	91.6	91.6	94.4	43	65.9	2	4	270	0.00	29.915 
16:55	91.6	91.6	94.8	44	66.6	3	6	270	0.00	29.915 
17:00	91.4	91.4	94.0	43	65.7	4	11	270	0.00	29.911 
17:05	91.0	91.0	93.4	43	65.4	4	11	270	0.00	29.911 
17:10	90.7	90.7	92.9	43	65.1	3	6	248	0.00	29.911 
17:15	90.7	90.7	92.5	42	64.4	4	9	270	0.00	29.899 
17:20	91.0	91.0	93.4	43	65.4	3	6	248	0.00	29.899 
17:25	90.5	90.5	92.5	43	64.9	4	9	270	0.00	29.899 
17:30	90.5	90.5	92.5	43	64.9	4	6	270	0.00	29.902 
17:35	90.5	90.5	92.2	42	64.2	4	12	248	0.00	29.902 
17:40	90.3	90.3	92.2	43	64.7	4	12	248	0.00	29.902 
17:45	90.5	90.5	92.9	44	65.6	3	5	270	0.00	29.903 
17:50	90.5	90.5	93.3	45	66.2	2	7	270	0.00	29.903 
17:55	90.3	90.3	93.4	46	66.7	3	9	270	0.00	29.903 
18:00	90.1	90.1	92.7	45	65.9	3	6	270	0.00	29.895 
18:05	89.7	89.7	91.3	43	64.2	3	9	270	0.00	29.895 
18:10	89.7	89.7	92.0	45	65.5	3	6	270	0.00	29.895 
18:15	89.7	89.7	91.6	44	64.8	3	7	270	0.00	29.891 
18:20	89.5	89.5	92.1	46	65.9	2	6	248	0.00	29.891 
18:25	89.0	89.0	90.9	45	64.9	4	12	270	0.00	29.891 
18:30	89.0	89.0	91.2	46	65.5	3	9	270	0.00	29.894 
18:35	88.6	88.6	90.6	46	65.1	3	10	270	0.00	29.894 
18:40	88.6	88.6	90.3	45	64.5	5	12	270	0.00	29.894 
18:45	88.4	88.4	90.3	46	64.9	3	12	270	0.00	29.888 
18:50	88.6	88.6	90.6	46	65.1	4	9	248	0.00	29.888 
18:55	88.6	88.6	90.6	46	65.1	3	8	248	0.00	29.888 
19:00	88.4	88.4	90.6	47	65.6	3	6	248	0.00	29.885 
19:05	88.4	88.4	90.3	46	64.9	2	7	248	0.00	29.885 
19:10	88.4	88.4	90.6	47	65.6	3	7	292	0.00	29.885 
19:15	88.2	88.2	90.0	46	64.8	5	13	270	0.00	29.883 
19:20	88.0	88.0	90.0	47	65.2	3	10	248	0.00	29.883 
19:25	87.8	87.8	89.4	46	64.4	3	8	248	0.00	29.883 
19:30	87.6	87.6	89.7	48	65.4	3	5	248	0.00	29.865 
19:35	87.4	87.4	89.7	49	65.9	3	6	248	0.00	29.865 
19:40	87.2	87.2	89.4	49	65.7	3	9	248	0.00	29.865 
19:45	87.4	87.4	89.4	48	65.3	2	7	248	0.00	29.872 
19:50	87.2	87.2	89.1	48	65.1	2	5	270	0.00	29.872 
19:55	87.0	87.0	89.1	49	65.5	3	6	248	0.00	29.872 
20:00	86.7	86.7	88.9	50	65.8	2	5	248	0.00	29.865 
20:05	86.5	86.5	88.6	50	65.6	3	8	270	0.00	29.865 
20:10	86.3	86.3	88.0	49	64.9	3	10	270	0.00	29.865 
20:15	86.3	86.3	88.3	50	65.4	2	6	270	0.00	29.874 
20:20	86.1	86.1	88.0	50	65.3	3	6	248	0.00	29.874 
20:25	86.1	86.1	88.3	51	65.8	2	6	248	0.00	29.874 
20:30	85.9	85.9	88.0	51	65.6	2	5	248	0.00	29.870 
20:35	85.5	85.5	87.7	52	65.8	1	3	248	0.00	29.870 
20:40	85.3	85.3	87.7	53	66.2	2	5	248	0.00	29.870 
20:45	85.1	85.1	87.7	54	66.6	2	4	248	0.00	29.868 
20:50	85.1	85.1	87.7	54	66.6	1	3	248	0.00	29.868 
20:55	84.7	84.7	87.3	55	66.7	1	4	248	0.00	29.868 
21:00	84.5	84.5	87.3	56	67.0	0	2	270	0.00	29.870 
21:05	84.1	84.1	86.7	56	66.7	1	3	248	0.00	29.870 
21:10	84.0	84.0	86.7	57	67.1	1	3	270	0.00	29.870 
21:15	83.8	83.8	86.7	58	67.4	1	2	270	0.00	29.863 
21:20	83.4	83.4	86.1	58	67.0	1	4	270	0.00	29.863 
21:25	83.2	83.2	86.0	59	67.4	1	2	270	0.00	29.863 
21:30	82.8	82.8	85.6	60	67.5	0	3	248	0.00	29.861 
21:35	82.6	82.6	85.5	61	67.8	1	2	248	0.00	29.861 
21:40	82.4	82.4	85.2	61	67.6	1	3	248	0.00	29.861 
21:45	82.4	82.4	85.2	61	67.6	1	3	270	0.00	29.861 
21:50	82.2	82.2	85.1	62	67.9	1	3	248	0.00	29.861 
21:55	81.8	81.8	84.5	62	67.5	0	3	248	0.00	29.861 
22:00	81.6	81.6	84.4	63	67.8	0	1	248	0.00	29.874 
22:05	81.6	81.6	84.4	63	67.8	1	2	248	0.00	29.874 
22:10	81.6	81.6	84.4	63	67.8	0	2	248	0.00	29.874 
22:15	81.4	81.4	84.3	64	68.0	0	2	248	0.00	29.874 
22:20	81.2	81.2	84.0	64	67.8	1	2	248	0.00	29.874 
22:25	81.2	81.2	84.0	64	67.8	1	3	270	0.00	29.874 
22:30	81.1	81.1	84.0	65	68.2	0	2	270	0.00	29.875 
22:35	80.9	80.9	83.7	65	68.0	0	2	270	0.00	29.875 
22:40	80.7	80.7	83.5	66	68.3	0	2	270	0.00	29.875 
22:45	80.7	80.7	83.5	66	68.3	1	3	270	0.00	29.877 
22:50	80.9	80.9	83.7	65	68.0	1	3	270	0.00	29.877 
22:55	80.7	80.7	83.5	66	68.3	1	2	248	0.00	29.877 
23:00	80.5	80.5	83.2	66	68.1	1	3	248	0.00	29.882 
23:05	80.5	80.5	83.3	67	68.5	1	2	248	0.00	29.882 
23:10	80.3	80.3	83.0	67	68.3	0	2	248	0.00	29.882 
23:15	80.3	80.3	83.0	67	68.3	0	2	248	0.00	29.882 
23:20	80.1	80.1	82.9	68	68.6	0	2	248	0.00	29.882 
23:25	79.9	79.9	82.6	68	68.4	0	1	248	0.00	29.882 
23:30	79.6	79.6	82.2	69	68.5	0	1	248	0.00	29.874 
23:35	79.4	79.4	82.0	70	68.7	0	1	248	0.00	29.874 
23:40	79.0	79.0	81.5	71	68.8	0	0	---	0.00	29.874 
23:45	78.6	78.6	81.0	72	68.8	0	0	---	0.00	29.875 
23:50	78.3	78.3	80.6	73	68.9	0	2	248	0.00	29.875 
23:55	78.1	78.1	80.3	74	69.1	0	1	248	0.00	29.875 

CoCoRaHS
IN-AL-39
A2 Web Hosting
Creative Commons License
GoDaddy
Look for:

loaded 2017-12-13 19:50:15 • last modified 2010-11-18 10:43:29
Privacy PolicyDisclaimer
• wx.awcolley.com is powered by PmWiki v.2002016 •
• all content (unless otherwise noted) © 2017 A W Colley